Terminal Aerodrome Forecast
Issued by NWS

Home | Current Version | Previous Version | Text Only | Print | Product List | Glossary On
Versions: 1 2 3 4 5 6 7 8 9 10 11 12 13 14 15 16 17 18
000
FTUS46 KLOX 031100
TAFSBA
TAF
KSBA 031138Z 0312/0412 08008KT P6SM BKN010
     FM031400 10006KT P6SM OVC012
     FM031800 21006KT P6SM OVC020
     FM032100 26008KT P6SM SCT025
     FM040300 VRB03KT P6SM BKN015
     FM040900 VRB03KT P6SM OVC021=

USA.gov is the U.S. government's official web portal to all federal, state and local government web resources and services.